createdAt,value
2018-06-18T00:02:01.230Z,94797.13
2018-06-18T00:04:27.209Z,94794.37
2018-06-18T00:06:53.191Z,94794.37
2018-06-18T00:09:19.174Z,94791.42
2018-06-18T00:11:45.156Z,94789.64
2018-06-18T00:14:11.143Z,94785.67
2018-06-18T00:16:37.121Z,94785.67
2018-06-18T00:19:03.101Z,94783.48
2018-06-18T00:21:29.079Z,94778.97
2018-06-18T00:23:55.062Z,94774.41
2018-06-18T00:26:21.048Z,94779.55
2018-06-18T00:28:47.032Z,94779.95
2018-06-18T00:31:13.055Z,94778.97
2018-06-18T00:33:39.022Z,94784.87
2018-06-18T00:36:04.996Z,94787.84
2018-06-18T00:38:30.979Z,94788.42
2018-06-18T00:40:56.955Z,94781.11
2018-06-18T00:43:22.939Z,94775.39
2018-06-18T00:45:48.920Z,94774.81
2018-06-18T00:48:14.890Z,94779.16
2018-06-18T00:50:40.876Z,94783.48
2018-06-18T00:53:06.866Z,94780.54
2018-06-18T00:55:32.838Z,94778.19
2018-06-18T00:57:58.830Z,94777.00
2018-06-18T01:00:24.818Z,94771.87
2018-06-18T01:02:50.804Z,94777.80
2018-06-18T01:05:16.790Z,94780.37
2018-06-18T01:07:42.767Z,94779.98
2018-06-18T01:10:08.757Z,94783.14
2018-06-18T01:12:34.736Z,94781.36
2018-06-18T01:15:00.718Z,94786.28
2018-06-18T01:17:26.735Z,94787.66
2018-06-18T01:19:52.718Z,94778.78
2018-06-18T01:22:18.703Z,94782.13
2018-06-18T01:24:44.687Z,94783.34
2018-06-18T01:27:10.669Z,94784.14
2018-06-18T01:29:36.638Z,94788.87
2018-06-18T01:32:02.623Z,94792.44
2018-06-18T01:34:28.604Z,94790.84
2018-06-18T01:36:54.586Z,94787.72
2018-06-18T01:39:20.568Z,94789.69
2018-06-18T01:41:46.547Z,94790.67
2018-06-18T01:44:12.526Z,94803.70
2018-06-18T01:46:38.505Z,94800.53
2018-06-18T01:49:04.499Z,94801.91
2018-06-18T01:51:30.479Z,94806.67
2018-06-18T01:53:56.458Z,94809.44
2018-06-18T01:56:22.442Z,94806.84
2018-06-18T01:58:48.451Z,94816.70
2018-06-18T02:01:14.446Z,94817.72
2018-06-18T02:03:40.419Z,94821.06
2018-06-18T02:06:06.410Z,94822.45
2018-06-18T02:08:32.393Z,94829.36
2018-06-18T02:10:58.374Z,94832.71
2018-06-18T02:13:24.355Z,94831.53
2018-06-18T02:15:50.337Z,94832.11
2018-06-18T02:18:16.322Z,94835.05
2018-06-18T02:20:42.313Z,94840.59
2018-06-18T02:23:08.296Z,94841.57
2018-06-18T02:25:34.285Z,94842.95
2018-06-18T02:28:00.273Z,94849.09
2018-06-18T02:30:26.258Z,94842.76
2018-06-18T02:32:52.264Z,94847.48
2018-06-18T02:35:18.247Z,94844.95
2018-06-18T02:37:44.233Z,94848.87
2018-06-18T02:40:10.219Z,94841.18
2018-06-18T02:42:36.210Z,94847.48
2018-06-18T02:45:02.209Z,94850.06
2018-06-18T02:47:28.219Z,94850.06
2018-06-18T02:49:54.207Z,94857.55
2018-06-18T02:52:20.190Z,94854.38
2018-06-18T02:54:46.173Z,94855.36
2018-06-18T02:57:12.156Z,94863.29
2018-06-18T02:59:38.140Z,94867.04
2018-06-18T03:02:04.126Z,94858.34
2018-06-18T03:04:30.106Z,94861.28
2018-06-18T03:06:56.093Z,94869.00
2018-06-18T03:09:22.079Z,94873.33
2018-06-18T03:11:48.065Z,94869.98
2018-06-18T03:14:14.042Z,94876.49
2018-06-18T03:16:40.038Z,94877.10
2018-06-18T03:19:06.039Z,94870.19
2018-06-18T03:21:32.067Z,94874.70
2018-06-18T03:23:58.052Z,94870.36
2018-06-18T03:26:24.030Z,94872.73
2018-06-18T03:28:50.014Z,94871.34
2018-06-18T03:31:16.006Z,94878.66
2018-06-18T03:33:41.978Z,94887.53
2018-06-18T03:36:07.982Z,94886.16
2018-06-18T03:38:33.967Z,94887.53
2018-06-18T03:40:59.949Z,94882.98
2018-06-18T03:43:25.932Z,94883.59
2018-06-18T03:45:51.911Z,94886.36
2018-06-18T03:48:17.894Z,94889.70
2018-06-18T03:50:43.905Z,94896.05
2018-06-18T03:53:09.894Z,94896.22
2018-06-18T03:55:35.874Z,94904.11
2018-06-18T03:58:01.884Z,94905.09
2018-06-18T04:00:27.843Z,94908.66
2018-06-18T04:02:53.833Z,94902.73
2018-06-18T04:05:19.833Z,94901.34
2018-06-18T04:07:45.809Z,94902.53
2018-06-18T04:10:11.789Z,94904.32
2018-06-18T04:12:37.774Z,94909.45
2018-06-18T04:15:03.764Z,94903.34
2018-06-18T04:17:29.761Z,94906.69
2018-06-18T04:19:55.744Z,94902.53
2018-06-18T04:22:21.761Z,94897.98
2018-06-18T04:24:47.771Z,94897.00
2018-06-18T04:27:13.738Z,94900.95
2018-06-18T04:29:39.726Z,94899.19
2018-06-18T04:32:05.720Z,94907.09
2018-06-18T04:34:31.711Z,94902.73
2018-06-18T04:36:57.683Z,94912.23
2018-06-18T04:39:23.700Z,94910.47
2018-06-18T04:41:49.651Z,94910.88
2018-06-18T04:44:15.630Z,94917.98
2018-06-18T04:46:41.702Z,94915.21
2018-06-18T04:49:07.681Z,94915.62
2018-06-18T04:51:33.703Z,94915.04
2018-06-18T04:53:59.730Z,94916.42
2018-06-18T04:56:25.816Z,94913.66
2018-06-18T04:58:51.735Z,94917.82
2018-06-18T05:01:17.729Z,94925.55
2018-06-18T05:03:43.711Z,94914.85
2018-06-18T05:06:09.693Z,94920.38
2018-06-18T05:08:35.674Z,94919.41
2018-06-18T05:11:01.685Z,94920.02
2018-06-18T05:13:27.695Z,94918.02
2018-06-18T05:15:53.697Z,94921.77
2018-06-18T05:18:19.678Z,94912.88
2018-06-18T05:20:45.675Z,94919.00
2018-06-18T05:23:11.681Z,94920.38
2018-06-18T05:25:37.650Z,94924.34
2018-06-18T05:28:03.705Z,94926.52
2018-06-18T05:30:29.727Z,94917.62
2018-06-18T05:32:55.775Z,94919.00
2018-06-18T05:35:21.733Z,94915.86
2018-06-18T05:37:47.722Z,94915.86
2018-06-18T05:40:13.725Z,94912.47
2018-06-18T05:42:39.718Z,94913.69
2018-06-18T05:45:05.703Z,94910.13
2018-06-18T05:47:31.754Z,94914.85
2018-06-18T05:49:57.685Z,94920.03
2018-06-18T05:52:23.666Z,94915.25
2018-06-18T05:54:49.700Z,94914.27
2018-06-18T05:57:15.665Z,94909.32
2018-06-18T05:59:41.653Z,94909.72
2018-06-18T06:02:07.625Z,94907.94
2018-06-18T06:04:33.625Z,94912.48
2018-06-18T06:06:59.609Z,94910.70
2018-06-18T06:09:25.624Z,94908.73
2018-06-18T06:11:51.603Z,94909.32
2018-06-18T06:14:17.577Z,94910.50
2018-06-18T06:16:43.737Z,94908.55
2018-06-18T06:19:09.656Z,94911.89
2018-06-18T06:21:35.648Z,94910.68
2018-06-18T06:24:01.622Z,94911.09
2018-06-18T06:26:27.608Z,94906.73
2018-06-18T06:28:53.602Z,94906.94
2018-06-18T06:31:19.590Z,94899.04
2018-06-18T06:33:45.577Z,94903.59
2018-06-18T06:36:11.553Z,94906.36
2018-06-18T06:38:37.540Z,94909.92
2018-06-18T06:41:03.537Z,94920.02
2018-06-18T06:43:29.513Z,94912.29
2018-06-18T06:45:55.503Z,94919.20
2018-06-18T06:48:21.499Z,94911.31
2018-06-18T06:50:47.485Z,94905.78
2018-06-18T06:53:13.465Z,94900.65
2018-06-18T06:55:39.457Z,94895.70
2018-06-18T06:58:05.455Z,94903.02
2018-06-18T07:00:31.443Z,94894.09
2018-06-18T07:02:57.420Z,94895.47
2018-06-18T07:05:23.424Z,94895.09
2018-06-18T07:07:49.401Z,94895.67
2018-06-18T07:10:15.519Z,94896.26
2018-06-18T07:12:41.458Z,94898.22
2018-06-18T07:15:07.433Z,94896.06
2018-06-18T07:17:33.420Z,94904.15
2018-06-18T07:19:59.413Z,94904.55
2018-06-18T07:22:25.410Z,94897.05
2018-06-18T07:24:51.396Z,94902.36
2018-06-18T07:27:17.383Z,94903.55
2018-06-18T07:29:43.365Z,94903.55
2018-06-18T07:32:09.344Z,94897.22
2018-06-18T07:34:35.332Z,94902.75
2018-06-18T07:37:01.314Z,94906.50
2018-06-18T07:39:27.295Z,94900.19
2018-06-18T07:41:53.284Z,94900.38
2018-06-18T07:44:19.278Z,94890.91
2018-06-18T07:46:45.265Z,94897.83
2018-06-18T07:49:11.249Z,94897.42
2018-06-18T07:51:37.314Z,94899.00
2018-06-18T07:54:03.238Z,94894.45
2018-06-18T07:56:29.223Z,94891.49
2018-06-18T07:58:55.207Z,94895.81
2018-06-18T08:01:21.275Z,94898.58
2018-06-18T08:03:47.256Z,94902.73
2018-06-18T08:06:13.244Z,94897.81
2018-06-18T08:08:39.231Z,94901.95
2018-06-18T08:11:05.258Z,94897.81
2018-06-18T08:13:31.249Z,94896.02
2018-06-18T08:15:57.243Z,94897.41
2018-06-18T08:18:23.220Z,94897.00
2018-06-18T08:20:49.210Z,94888.30
2018-06-18T08:23:15.193Z,94897.41
2018-06-18T08:25:41.173Z,94888.70
2018-06-18T08:28:07.154Z,94884.73
2018-06-18T08:30:33.148Z,94885.72
2018-06-18T08:32:59.152Z,94891.65
2018-06-18T08:35:25.125Z,94884.73
2018-06-18T08:37:51.107Z,94887.50
2018-06-18T08:40:17.093Z,94888.08
2018-06-18T08:42:43.092Z,94884.33
2018-06-18T08:45:09.094Z,94887.91
2018-06-18T08:47:35.073Z,94885.54
2018-06-18T08:50:01.057Z,94880.98
2018-06-18T08:52:27.037Z,94893.61
2018-06-18T08:54:53.011Z,94878.80
2018-06-18T08:57:19.000Z,94879.41
2018-06-18T08:59:44.985Z,94878.40
2018-06-18T09:02:10.975Z,94877.02
2018-06-18T09:04:36.959Z,94880.59
2018-06-18T09:07:03.033Z,94890.47
2018-06-18T09:09:28.995Z,94891.86
2018-06-18T09:11:54.978Z,94896.38
2018-06-18T09:14:20.966Z,94893.81
2018-06-18T09:16:46.975Z,94890.84
2018-06-18T09:19:12.956Z,94888.28
2018-06-18T09:21:38.940Z,94886.91
2018-06-18T09:24:04.927Z,94891.63
2018-06-18T09:26:30.903Z,94890.25
2018-06-18T09:28:56.886Z,94898.14
2018-06-18T09:31:22.863Z,94903.50
2018-06-18T09:33:48.851Z,94894.39
2018-06-18T09:36:14.852Z,94888.86
2018-06-18T09:38:40.841Z,94890.47
2018-06-18T09:41:06.857Z,94893.81
2018-06-18T09:43:32.843Z,94893.81
2018-06-18T09:45:58.818Z,94887.48
2018-06-18T09:48:24.807Z,94886.91
2018-06-18T09:50:50.794Z,94880.16
2018-06-18T09:53:16.772Z,94874.45
2018-06-18T09:55:42.809Z,94875.44
2018-06-18T09:58:08.735Z,94872.27
2018-06-18T10:00:34.728Z,94874.05
2018-06-18T10:03:00.732Z,94869.33
2018-06-18T10:05:26.713Z,94865.18
2018-06-18T10:07:52.690Z,94867.55
2018-06-18T10:10:18.680Z,94872.27
2018-06-18T10:12:44.653Z,94879.59
2018-06-18T10:15:10.639Z,94878.20
2018-06-18T10:17:36.637Z,94879.59
2018-06-18T10:20:02.628Z,94871.09
2018-06-18T10:22:28.611Z,94868.91
2018-06-18T10:24:54.592Z,94869.89
2018-06-18T10:27:20.572Z,94871.67
2018-06-18T10:29:46.561Z,94866.32
2018-06-18T10:32:12.545Z,94860.21
2018-06-18T10:34:38.518Z,94862.80
2018-06-18T10:37:04.499Z,94860.03
2018-06-18T10:39:30.506Z,94860.61
2018-06-18T10:41:56.508Z,94859.02
2018-06-18T10:44:22.509Z,94864.18
2018-06-18T10:46:48.537Z,94859.02
2018-06-18T10:49:14.552Z,94858.66
2018-06-18T10:51:40.558Z,94854.88
2018-06-18T10:54:06.554Z,94859.63
2018-06-18T10:56:32.562Z,94857.84
2018-06-18T10:58:58.569Z,94857.84
2018-06-18T11:01:24.563Z,94853.30
2018-06-18T11:03:50.640Z,94857.27
2018-06-18T11:06:16.578Z,94856.87
2018-06-18T11:08:42.573Z,94864.18
2018-06-18T11:11:08.592Z,94861.42
2018-06-18T11:13:34.584Z,94860.03
2018-06-18T11:16:00.612Z,94864.37
2018-06-18T11:18:26.591Z,94854.88
2018-06-18T11:20:52.593Z,94860.41
2018-06-18T11:23:18.600Z,94859.83
2018-06-18T11:25:44.597Z,94864.37
2018-06-18T11:28:10.607Z,94852.91
2018-06-18T11:30:36.669Z,94851.94
2018-06-18T11:33:02.670Z,94857.87
2018-06-18T11:35:28.662Z,94852.53
2018-06-18T11:37:54.685Z,94842.84
2018-06-18T11:40:20.749Z,94844.64
2018-06-18T11:42:46.713Z,94847.00
2018-06-18T11:45:12.721Z,94847.61
2018-06-18T11:47:38.728Z,94847.00
2018-06-18T11:50:04.730Z,94842.08
2018-06-18T11:52:30.756Z,94838.70
2018-06-18T11:54:56.844Z,94842.84
2018-06-18T11:57:22.850Z,94839.10
2018-06-18T11:59:48.997Z,94846.02
2018-06-18T12:02:15.007Z,94838.12
2018-06-18T12:04:41.011Z,94835.36
2018-06-18T12:07:07.037Z,94829.02
2018-06-18T12:09:33.122Z,94818.77
2018-06-18T12:11:59.075Z,94830.41
2018-06-18T12:14:25.070Z,94820.15
2018-06-18T12:16:51.099Z,94816.98
2018-06-18T12:19:17.046Z,94811.27
2018-06-18T12:21:43.022Z,94811.06
2018-06-18T12:24:09.013Z,94805.16
2018-06-18T12:26:34.991Z,94812.27
2018-06-18T12:29:00.975Z,94812.67
2018-06-18T12:31:26.956Z,94813.83
2018-06-18T12:33:52.939Z,94806.91
2018-06-18T12:36:18.979Z,94806.34
2018-06-18T12:38:44.939Z,94805.36
2018-06-18T12:41:10.975Z,94807.31
2018-06-18T12:43:36.926Z,94807.12
2018-06-18T12:46:02.930Z,94803.17
2018-06-18T12:48:28.907Z,94802.39
2018-06-18T12:50:54.890Z,94787.37
2018-06-18T12:53:20.931Z,94795.67
2018-06-18T12:55:46.871Z,94797.86
2018-06-18T12:58:12.860Z,94792.12
2018-06-18T13:00:38.840Z,94791.14
2018-06-18T13:03:04.829Z,94798.63
2018-06-18T13:05:31.937Z,94778.91
2018-06-18T13:07:57.918Z,94794.31
2018-06-18T13:10:23.894Z,94782.44
2018-06-18T13:12:49.954Z,94778.69
2018-06-18T13:15:15.903Z,94784.23
2018-06-18T13:17:41.899Z,94781.46
2018-06-18T13:20:07.869Z,94786.02
2018-06-18T13:22:33.856Z,94781.06
2018-06-18T13:24:59.843Z,94779.29
2018-06-18T13:27:25.837Z,94783.06
2018-06-18T13:29:51.805Z,94780.50
2018-06-18T13:32:17.784Z,94780.50
2018-06-18T13:34:45.713Z,94778.92
2018-06-18T13:37:11.658Z,94784.82
2018-06-18T13:39:37.641Z,94785.03
2018-06-18T13:42:03.652Z,94780.67
2018-06-18T13:44:29.603Z,94788.59
2018-06-18T13:46:55.631Z,94784.05
2018-06-18T13:49:21.621Z,94788.59
2018-06-18T13:51:47.657Z,94781.28
2018-06-18T13:54:13.606Z,94782.27
2018-06-18T13:56:39.598Z,94782.66
2018-06-18T13:59:05.632Z,94783.44
2018-06-18T14:01:31.663Z,94786.19
2018-06-18T14:03:57.723Z,94794.30
2018-06-18T14:06:23.706Z,94797.64
2018-06-18T14:08:49.733Z,94800.41
2018-06-18T14:11:15.719Z,94802.59
2018-06-18T14:13:41.752Z,94792.91
2018-06-18T14:16:07.688Z,94787.55
2018-06-18T14:18:33.691Z,94796.86
2018-06-18T14:20:59.695Z,94801.19
2018-06-18T14:23:25.690Z,94799.00
2018-06-18T14:25:51.675Z,94812.83
2018-06-18T14:28:17.833Z,94812.64
2018-06-18T14:30:43.825Z,94810.27
2018-06-18T14:33:09.815Z,94805.90
2018-06-18T14:35:35.815Z,94807.69
2018-06-18T14:38:01.885Z,94808.88
2018-06-18T14:40:27.868Z,94815.98
2018-06-18T14:42:53.862Z,94816.56
2018-06-18T14:45:19.865Z,94818.92
2018-06-18T14:47:45.882Z,94813.59
2018-06-18T14:50:11.898Z,94810.44
2018-06-18T14:52:37.929Z,94814.18
2018-06-18T14:55:03.865Z,94821.49
2018-06-18T14:57:29.860Z,94823.27
2018-06-18T14:59:56.001Z,94830.33
2018-06-18T15:02:21.856Z,94846.51
2018-06-18T15:04:47.847Z,94846.72
2018-06-18T15:07:13.833Z,94852.05
2018-06-18T15:09:39.822Z,94850.66
2018-06-18T15:12:05.803Z,94851.45
2018-06-18T15:14:31.796Z,94862.51
2018-06-18T15:16:57.803Z,94866.48
2018-06-18T15:19:23.782Z,94877.31
2018-06-18T15:21:49.783Z,94902.60
2018-06-18T15:24:15.776Z,94927.88
2018-06-18T15:26:41.756Z,94940.72
2018-06-18T15:29:07.735Z,94979.44
2018-06-18T15:31:33.725Z,95008.47
2018-06-18T15:33:59.709Z,95010.02
2018-06-18T15:36:25.702Z,95046.58
2018-06-18T15:38:51.687Z,95031.74
2018-06-18T15:41:17.682Z,95019.70
2018-06-18T15:43:43.676Z,95019.30
2018-06-18T15:46:09.644Z,95028.98
2018-06-18T15:48:35.632Z,95027.83
2018-06-18T15:51:01.618Z,95035.31
2018-06-18T15:53:27.648Z,95036.92
2018-06-18T15:55:53.600Z,95026.04
2018-06-18T15:58:19.583Z,95024.48
2018-06-18T16:00:45.563Z,95013.04
2018-06-18T16:03:11.540Z,95015.45
2018-06-18T16:05:37.519Z,95013.87
2018-06-18T16:08:03.502Z,95023.78
2018-06-18T16:10:29.494Z,95027.92
2018-06-18T16:12:55.514Z,95041.77
2018-06-18T16:15:21.496Z,95048.89
2018-06-18T16:17:47.547Z,95059.77
2018-06-18T16:20:13.486Z,95056.20
2018-06-18T16:22:39.463Z,95052.08
2018-06-18T16:25:05.468Z,95056.86
2018-06-18T16:27:31.552Z,95053.89
2018-06-18T16:29:57.566Z,95047.78
2018-06-18T16:32:23.552Z,95040.66
2018-06-18T16:34:49.542Z,95038.30
2018-06-18T16:37:15.527Z,95032.99
2018-06-18T16:39:41.519Z,95033.77
2018-06-18T16:42:07.499Z,95036.34
2018-06-18T16:44:33.482Z,95036.16
2018-06-18T16:46:59.462Z,95035.94
2018-06-18T16:49:25.533Z,95035.33
2018-06-18T16:51:51.520Z,95033.38
2018-06-18T16:54:17.541Z,95028.21
2018-06-18T16:56:43.528Z,95021.50
2018-06-18T16:59:09.513Z,95019.91
2018-06-18T17:01:35.498Z,95010.06
2018-06-18T17:04:01.497Z,95013.20
2018-06-18T17:06:27.480Z,95009.63
2018-06-18T17:08:54.862Z,95011.25
2018-06-18T17:11:20.857Z,95012.40
2018-06-18T17:13:46.913Z,95003.32
2018-06-18T17:16:13.328Z,95002.34
2018-06-18T17:18:39.314Z,94999.78
2018-06-18T17:21:05.564Z,94991.88
2018-06-18T17:23:31.555Z,94995.63
2018-06-18T17:25:57.530Z,95001.16
2018-06-18T17:28:23.508Z,95000.16
2018-06-18T17:30:49.493Z,95004.10
2018-06-18T17:33:15.478Z,95007.27
2018-06-18T17:35:41.474Z,95012.42
2018-06-18T17:38:07.517Z,95011.62
2018-06-18T17:40:33.449Z,95014.78
2018-06-18T17:42:59.440Z,95016.39
2018-06-18T17:45:25.637Z,95025.30
2018-06-18T17:47:51.724Z,95020.34
2018-06-18T17:50:17.668Z,95028.04
2018-06-18T17:52:43.658Z,95028.04
2018-06-18T17:55:09.681Z,95027.44
2018-06-18T17:57:35.716Z,95033.17
2018-06-18T18:00:01.690Z,95032.01
2018-06-18T18:02:27.681Z,95031.63
2018-06-18T18:04:53.668Z,95030.25
2018-06-18T18:07:19.658Z,95028.46
2018-06-18T18:09:45.635Z,95027.66
2018-06-18T18:12:11.676Z,95035.78
2018-06-18T18:14:37.615Z,95034.57
2018-06-18T18:17:03.635Z,95030.42
2018-06-18T18:19:29.610Z,95030.05
2018-06-18T18:21:55.596Z,95028.28
2018-06-18T18:24:21.684Z,95025.14
2018-06-18T18:26:47.696Z,95025.16
2018-06-18T18:29:13.717Z,95034.47
2018-06-18T18:31:39.693Z,95036.83
2018-06-18T18:34:05.685Z,95037.20
2018-06-18T18:36:31.709Z,95042.36
2018-06-18T18:38:57.690Z,95047.89
2018-06-18T18:41:23.712Z,95048.70
2018-06-18T18:43:49.696Z,95054.83
2018-06-18T18:46:15.694Z,95060.16
2018-06-18T18:48:41.685Z,95057.59
2018-06-18T18:51:07.769Z,95060.74
2018-06-18T18:53:33.706Z,95072.01
2018-06-18T18:55:59.690Z,95069.04
2018-06-18T18:58:25.675Z,95074.58
2018-06-18T19:00:51.668Z,95086.42
2018-06-18T19:03:17.702Z,95088.98
2018-06-18T19:05:43.682Z,95090.37
2018-06-18T19:08:09.681Z,95097.45
2018-06-18T19:10:35.664Z,95096.68
2018-06-18T19:13:01.697Z,95102.21
2018-06-18T19:15:27.967Z,95101.00
2018-06-18T19:17:53.916Z,95101.41
2018-06-18T19:20:19.907Z,95095.88
2018-06-18T19:22:45.892Z,95101.81
2018-06-18T19:25:13.907Z,95100.02
2018-06-18T19:27:51.245Z,95101.81
2018-06-18T19:30:17.274Z,95100.20
2018-06-18T19:32:43.265Z,95101.98
2018-06-18T19:35:09.306Z,95106.34
2018-06-18T19:37:35.352Z,95108.70
2018-06-18T19:40:01.294Z,95106.92
2018-06-18T19:42:27.347Z,95110.09
2018-06-18T19:44:53.331Z,95107.49
2018-06-18T19:47:19.325Z,95112.05
2018-06-18T19:49:45.314Z,95117.78
2018-06-18T19:52:11.352Z,95129.02
2018-06-18T19:54:37.338Z,95128.62
2018-06-18T19:57:03.365Z,95134.73
2018-06-18T19:59:29.441Z,95132.97
2018-06-18T20:01:55.392Z,95133.14
2018-06-18T20:04:21.373Z,95139.86
2018-06-18T20:06:47.357Z,95144.98
2018-06-18T20:09:13.347Z,95137.27
2018-06-18T20:11:39.327Z,95139.23
2018-06-18T20:14:05.386Z,95142.60
2018-06-18T20:16:31.376Z,95143.58
2018-06-18T20:18:57.405Z,95145.14
2018-06-18T20:21:23.392Z,95151.45
2018-06-18T20:23:49.370Z,95147.30
2018-06-18T20:26:15.355Z,95146.49
2018-06-18T20:28:41.344Z,95152.02
2018-06-18T20:31:07.326Z,95162.69
2018-06-18T20:33:33.329Z,95161.10
2018-06-18T20:35:59.309Z,95156.55
2018-06-18T20:38:25.322Z,95150.22
2018-06-18T20:40:51.303Z,95157.70
2018-06-18T20:43:17.293Z,95153.55
2018-06-18T20:45:43.280Z,95152.78
2018-06-18T20:48:09.253Z,95146.44
2018-06-18T20:50:35.278Z,95152.95
2018-06-18T20:53:01.246Z,95144.25
2018-06-18T20:55:27.247Z,95147.63
2018-06-18T20:57:53.230Z,95155.92
2018-06-18T21:00:19.224Z,95155.92
2018-06-18T21:02:45.232Z,95152.09
2018-06-18T21:05:11.234Z,95145.58
2018-06-18T21:07:37.174Z,95141.02
2018-06-18T21:10:03.157Z,95133.73
2018-06-18T21:12:29.147Z,95139.84
2018-06-18T21:14:55.122Z,95136.28
2018-06-18T21:17:21.115Z,95143.19
2018-06-18T21:19:47.096Z,95138.64
2018-06-18T21:22:13.100Z,95133.52
2018-06-18T21:24:39.092Z,95123.02
2018-06-18T21:27:05.118Z,95118.88
2018-06-18T21:29:31.093Z,95123.42
2018-06-18T21:31:57.075Z,95123.63
2018-06-18T21:34:23.066Z,95125.42
2018-06-18T21:36:49.054Z,95125.79
2018-06-18T21:39:15.039Z,95136.08
2018-06-18T21:41:41.018Z,95138.44
2018-06-18T21:44:07.000Z,95147.14
2018-06-18T21:46:32.987Z,95149.50
2018-06-18T21:48:58.969Z,95155.44
2018-06-18T21:51:24.959Z,95158.38
2018-06-18T21:53:50.936Z,95160.56
2018-06-18T21:56:16.914Z,95158.38
2018-06-18T21:58:42.905Z,95166.67
2018-06-18T22:01:08.883Z,95159.95
2018-06-18T22:03:34.865Z,95163.91
2018-06-18T22:06:00.917Z,95167.24
2018-06-18T22:08:26.877Z,95166.06
2018-06-18T22:10:52.923Z,95165.09
2018-06-18T22:13:18.848Z,95168.43
2018-06-18T22:15:44.825Z,95169.00
2018-06-18T22:18:10.814Z,95163.88
2018-06-18T22:20:36.800Z,95171.20
2018-06-18T22:23:02.782Z,95169.00
2018-06-18T22:25:28.764Z,95168.60
2018-06-18T22:27:54.782Z,95167.22
2018-06-18T22:30:20.752Z,95161.69
2018-06-18T22:32:46.727Z,95166.44
2018-06-18T22:35:12.710Z,95166.44
2018-06-18T22:37:38.701Z,95167.42
2018-06-18T22:40:04.679Z,95174.13
2018-06-18T22:42:30.761Z,95173.96
2018-06-18T22:44:56.647Z,95173.96
2018-06-18T22:47:22.641Z,95179.29
2018-06-18T22:49:48.621Z,95176.31
2018-06-18T22:52:14.602Z,95175.52
2018-06-18T22:54:40.578Z,95175.52
2018-06-18T22:57:06.558Z,95173.76
2018-06-18T22:59:32.543Z,95173.36
2018-06-18T23:01:58.524Z,95170.19
2018-06-18T23:04:24.502Z,95166.03
2018-06-18T23:06:50.484Z,95170.19
2018-06-18T23:09:16.459Z,95172.95
2018-06-18T23:11:42.457Z,95178.89
2018-06-18T23:14:08.439Z,95169.78
2018-06-18T23:16:34.417Z,95171.16
2018-06-18T23:19:00.412Z,95169.95
2018-06-18T23:21:26.395Z,95167.59
2018-06-18T23:23:52.374Z,95168.98
2018-06-18T23:26:18.370Z,95164.83
2018-06-18T23:28:44.345Z,95161.66
2018-06-18T23:31:10.335Z,95166.61
2018-06-18T23:33:36.312Z,95169.58
2018-06-18T23:36:02.340Z,95165.44
2018-06-18T23:38:28.319Z,95168.20
2018-06-18T23:40:54.299Z,95167.39
2018-06-18T23:43:20.283Z,95163.82
2018-06-18T23:45:46.264Z,95159.09
2018-06-18T23:48:12.242Z,95157.72
2018-06-18T23:50:38.223Z,95159.09
2018-06-18T23:53:04.202Z,95158.29
2018-06-18T23:55:30.189Z,95160.48
2018-06-18T23:57:56.181Z,95160.48
